Time;durP1;ratioP1;P1;durP2;ratioP2;P2;SDS_P1;SDS_P2;PMS_P1;PMS_P2;Temp;Humidity;BMP_temperature;BMP_pressure;BME280_temperature;BME280_humidity;BME280_pressure;Samples;Min_cycle;Max_cycle;Signal;HPM_P1;HPM_P2
2023/08/19 00:01:12;;;;;;;17.60;9.32;;;20.60;99.90;;;;;;5078808;28;20565;-71
2023/08/19 00:03:38;;;;;;;16.60;8.63;;;20.60;99.90;;;;;;5080995;28;20367;-72
2023/08/19 00:06:06;;;;;;;17.23;8.73;;;20.60;99.90;;;;;;5080238;28;20044;-72
2023/08/19 00:08:32;;;;;;;17.08;8.68;;;20.50;99.90;;;;;;5074370;28;20047;-71
2023/08/19 00:10:58;;;;;;;15.35;8.75;;;20.60;99.90;;;;;;5081755;28;20043;-72
2023/08/19 00:13:24;;;;;;;18.70;9.52;;;20.60;99.90;;;;;;5079595;28;20028;-72
2023/08/19 00:15:49;;;;;;;14.70;7.82;;;20.50;99.90;;;;;;5060365;28;20493;-71
2023/08/19 00:18:16;;;;;;;15.52;8.48;;;20.50;99.90;;;;;;5081235;28;20041;-72
2023/08/19 00:20:42;;;;;;;16.67;8.45;;;20.50;99.90;;;;;;5074601;28;20039;-72
2023/08/19 00:23:07;;;;;;;15.85;8.65;;;20.50;99.90;;;;;;5078665;28;20036;-71
2023/08/19 00:25:33;;;;;;;18.75;8.75;;;20.50;99.90;;;;;;5077045;28;20475;-72
2023/08/19 00:27:59;;;;;;;16.25;8.65;;;20.50;99.90;;;;;;5077420;28;20056;-71
2023/08/19 00:30:26;;;;;;;15.68;8.70;;;20.50;99.90;;;;;;5078744;28;20037;-71
2023/08/19 00:32:51;;;;;;;15.23;8.90;;;20.50;99.90;;;;;;5073320;28;20036;-72
2023/08/19 00:35:17;;;;;;;16.73;8.35;;;20.50;99.90;;;;;;5076591;28;20036;-71
2023/08/19 00:37:42;;;;;;;14.55;8.15;;;20.50;99.90;;;;;;5071894;28;20036;-72
2023/08/19 00:40:14;;;;;;;14.80;8.27;;;20.50;99.90;;;;;;5077464;28;20040;-72
2023/08/19 00:42:39;;;;;;;14.95;8.27;;;20.50;99.90;;;;;;5057061;28;20042;-72
2023/08/19 00:45:06;;;;;;;12.63;7.70;;;20.50;99.90;;;;;;5077328;28;20039;-71
2023/08/19 00:47:31;;;;;;;14.15;8.63;;;20.40;99.90;;;;;;5062666;28;20073;-71
2023/08/19 00:49:57;;;;;;;15.27;8.65;;;20.40;99.90;;;;;;5080099;28;20054;-72
2023/08/19 00:52:23;;;;;;;15.73;7.78;;;20.40;99.90;;;;;;5072137;28;20044;-71
2023/08/19 00:54:50;;;;;;;13.40;7.60;;;20.40;99.90;;;;;;5083055;28;20498;-72
2023/08/19 00:57:16;;;;;;;17.38;8.98;;;20.40;99.90;;;;;;5072538;28;20056;-72
2023/08/19 00:59:42;;;;;;;14.27;8.23;;;20.40;99.90;;;;;;5080835;28;20054;-72
2023/08/19 01:02:08;;;;;;;15.40;8.63;;;20.40;99.90;;;;;;5055078;28;20067;-72
2023/08/19 01:04:34;;;;;;;13.80;8.43;;;20.40;99.90;;;;;;5079611;28;20174;-72
2023/08/19 01:07:08;;;;;;;13.07;7.82;;;20.40;99.90;;;;;;5113803;28;20047;-71
2023/08/19 01:10:08;;;;;;;14.53;8.37;;;20.40;99.90;;;;;;5077826;28;20551;-71
2023/08/19 01:12:46;;;;;;;15.85;8.32;;;20.30;99.90;;;;;;5062189;28;20060;-72
2023/08/19 01:15:23;;;;;;;17.58;9.27;;;20.40;99.90;;;;;;5084685;28;20044;-72
2023/08/19 01:17:49;;;;;;;13.38;7.97;;;20.30;99.90;;;;;;5112293;27;20474;-71
2023/08/19 01:20:16;;;;;;;17.00;9.25;;;20.30;99.90;;;;;;5118860;27;20493;-72
2023/08/19 01:22:49;;;;;;;13.35;7.90;;;20.30;99.90;;;;;;5081201;28;20123;-72
2023/08/19 01:25:15;;;;;;;16.63;9.18;;;20.30;99.90;;;;;;5111370;27;20045;-71
2023/08/19 01:27:41;;;;;;;14.60;8.07;;;20.20;99.90;;;;;;5072021;28;20445;-72
2023/08/19 01:30:07;;;;;;;16.65;8.77;;;20.20;99.90;;;;;;5081974;28;20181;-71
2023/08/19 01:32:33;;;;;;;15.93;7.95;;;20.20;99.90;;;;;;5063087;28;20027;-72
2023/08/19 01:34:58;;;;;;;17.88;8.38;;;20.20;99.90;;;;;;5082499;28;20115;-71
2023/08/19 01:37:34;;;;;;;13.85;8.05;;;20.20;99.90;;;;;;5080206;28;20040;-71
2023/08/19 01:40:01;;;;;;;15.45;8.07;;;20.20;99.90;;;;;;5091482;28;20047;-71
2023/08/19 01:42:27;;;;;;;14.10;7.70;;;20.20;99.90;;;;;;5075193;28;20398;-71
2023/08/19 01:44:54;;;;;;;14.25;7.95;;;20.10;99.90;;;;;;5074856;28;20537;-71
2023/08/19 01:47:20;;;;;;;14.65;7.95;;;20.10;99.90;;;;;;5092864;28;20463;-71
2023/08/19 01:49:46;;;;;;;16.27;7.82;;;20.10;99.90;;;;;;5089816;28;20123;-71
2023/08/19 01:52:12;;;;;;;14.73;8.45;;;20.10;99.90;;;;;;5096512;28;20120;-71
2023/08/19 01:54:38;;;;;;;14.90;7.72;;;20.10;99.90;;;;;;5115225;27;20071;-72
2023/08/19 01:57:05;;;;;;;16.35;8.73;;;20.10;99.90;;;;;;5069840;28;20519;-71
2023/08/19 01:59:32;;;;;;;14.88;8.40;;;20.10;99.90;;;;;;5112773;27;20493;-71
2023/08/19 02:01:57;;;;;;;16.23;8.95;;;20.10;99.90;;;;;;5059291;28;20119;-72
2023/08/19 02:04:23;;;;;;;15.60;8.27;;;20.10;99.90;;;;;;5083336;28;20189;-71
2023/08/19 02:06:49;;;;;;;15.55;7.75;;;20.10;99.90;;;;;;5080301;28;20031;-71
2023/08/19 02:09:14;;;;;;;15.73;7.97;;;20.10;99.90;;;;;;5072518;28;20588;-72
2023/08/19 02:11:40;;;;;;;14.90;7.78;;;20.00;99.90;;;;;;5069028;28;20044;-71
2023/08/19 02:14:06;;;;;;;18.20;8.65;;;20.00;99.90;;;;;;5076423;28;20085;-71
2023/08/19 02:16:31;;;;;;;15.75;8.23;;;20.00;99.90;;;;;;5082341;28;20036;-72
2023/08/19 02:19:00;;;;;;;15.70;8.35;;;20.00;99.90;;;;;;5078424;28;20042;-71
2023/08/19 02:21:26;;;;;;;13.68;7.85;;;20.10;99.90;;;;;;5081546;28;20878;-71
2023/08/19 02:23:53;;;;;;;17.63;8.77;;;20.00;99.90;;;;;;5078198;28;20198;-72
2023/08/19 02:26:19;;;;;;;15.38;8.00;;;20.00;99.90;;;;;;5079989;28;20032;-71
2023/08/19 02:28:44;;;;;;;16.88;8.30;;;20.00;99.90;;;;;;5075758;28;20040;-71
2023/08/19 02:31:10;;;;;;;14.18;8.32;;;20.00;99.90;;;;;;5079946;28;20037;-71
2023/08/19 02:33:36;;;;;;;16.10;8.82;;;20.00;99.90;;;;;;5081537;28;20031;-71
2023/08/19 02:36:04;;;;;;;15.13;7.72;;;20.00;99.90;;;;;;5080884;28;20073;-71
2023/08/19 02:38:30;;;;;;;14.20;7.78;;;20.00;99.90;;;;;;5058540;28;20044;-72
2023/08/19 02:40:56;;;;;;;16.45;8.65;;;20.00;99.90;;;;;;5078199;28;20152;-71
2023/08/19 02:43:22;;;;;;;14.40;7.57;;;19.90;99.90;;;;;;5074001;28;20071;-71
2023/08/19 02:45:48;;;;;;;13.88;7.70;;;20.00;99.90;;;;;;5056196;28;20036;-71
2023/08/19 02:48:14;;;;;;;15.68;8.25;;;20.00;99.90;;;;;;5081275;28;20044;-71
2023/08/19 02:50:40;;;;;;;14.63;7.32;;;20.00;99.90;;;;;;5083758;28;20086;-72
2023/08/19 02:53:06;;;;;;;14.27;7.55;;;19.90;99.90;;;;;;5078078;28;20103;-71
2023/08/19 02:55:32;;;;;;;15.65;8.30;;;19.90;99.90;;;;;;5073413;28;20115;-72
2023/08/19 02:57:59;;;;;;;16.58;8.48;;;19.90;99.90;;;;;;5081868;28;20043;-72
2023/08/19 03:00:25;;;;;;;13.73;8.32;;;19.90;99.90;;;;;;5076920;28;20038;-71
2023/08/19 03:02:52;;;;;;;14.55;7.95;;;19.90;99.90;;;;;;5114557;27;20035;-71
2023/08/19 03:05:17;;;;;;;14.15;7.20;;;19.90;99.90;;;;;;5079921;28;20545;-71
2023/08/19 03:07:43;;;;;;;16.25;7.47;;;19.90;99.90;;;;;;5078425;28;20044;-72
2023/08/19 03:10:09;;;;;;;15.23;7.97;;;19.90;99.90;;;;;;5092568;28;20044;-71
2023/08/19 03:12:35;;;;;;;17.02;8.57;;;19.90;99.90;;;;;;5082004;28;20028;-72
2023/08/19 03:15:00;;;;;;;14.65;7.95;;;19.90;99.90;;;;;;5080090;28;20063;-71
2023/08/19 03:17:26;;;;;;;13.88;7.80;;;19.90;99.90;;;;;;5079423;28;20124;-72
2023/08/19 03:19:52;;;;;;;14.30;7.78;;;19.90;99.90;;;;;;5074823;28;20517;-71
2023/08/19 03:22:17;;;;;;;14.35;7.95;;;19.90;99.90;;;;;;5068323;28;20803;-72
2023/08/19 03:24:43;;;;;;;14.73;8.15;;;19.90;99.90;;;;;;5079923;28;20166;-71
2023/08/19 03:27:09;;;;;;;13.52;7.47;;;19.90;99.90;;;;;;5078753;28;20056;-72
2023/08/19 03:29:35;;;;;;;14.82;7.57;;;19.90;99.90;;;;;;5077989;28;20047;-72
2023/08/19 03:32:01;;;;;;;12.65;7.63;;;19.90;99.90;;;;;;5083053;28;20028;-72
2023/08/19 03:34:26;;;;;;;15.88;8.27;;;19.90;99.90;;;;;;5077196;28;20055;-72
2023/08/19 03:36:52;;;;;;;14.25;7.90;;;19.90;99.90;;;;;;5078618;28;20115;-72
2023/08/19 03:39:18;;;;;;;15.35;8.05;;;19.90;99.90;;;;;;5075248;28;20043;-72
2023/08/19 03:41:43;;;;;;;14.68;7.93;;;19.90;99.90;;;;;;5077236;28;20043;-72
2023/08/19 03:44:09;;;;;;;14.13;7.78;;;19.80;99.90;;;;;;5074696;28;20397;-72
2023/08/19 03:46:35;;;;;;;15.70;7.60;;;19.80;99.90;;;;;;5072335;28;20048;-72
2023/08/19 03:49:00;;;;;;;15.65;7.28;;;19.80;99.90;;;;;;5071703;28;20100;-72
2023/08/19 03:51:27;;;;;;;14.57;7.70;;;19.80;99.90;;;;;;5075781;28;20036;-72
2023/08/19 03:53:52;;;;;;;16.58;7.53;;;19.80;99.90;;;;;;5104812;27;20055;-72
2023/08/19 03:56:18;;;;;;;14.57;7.95;;;19.80;99.90;;;;;;5075083;28;20037;-71
2023/08/19 03:58:46;;;;;;;13.85;6.65;;;19.80;99.90;;;;;;5078489;28;20032;-71
2023/08/19 04:01:12;;;;;;;13.27;7.47;;;19.80;99.90;;;;;;5109733;27;20078;-72
2023/08/19 04:03:37;;;;;;;16.38;7.88;;;19.80;99.90;;;;;;5082189;28;20060;-72
2023/08/19 04:06:03;;;;;;;13.60;7.55;;;19.80;99.90;;;;;;5080748;28;20572;-72
2023/08/19 04:08:29;;;;;;;14.05;7.38;;;19.80;99.90;;;;;;5078397;28;20607;-72
2023/08/19 04:11:02;;;;;;;15.20;6.95;;;19.80;99.90;;;;;;5078820;28;20068;-72
2023/08/19 04:13:27;;;;;;;14.85;7.43;;;19.80;99.90;;;;;;5075860;28;20048;-72
2023/08/19 04:15:53;;;;;;;14.00;6.88;;;19.80;99.90;;;;;;5072905;28;20039;-72
2023/08/19 04:18:19;;;;;;;17.35;7.63;;;19.80;99.90;;;;;;5077862;28;20541;-72
2023/08/19 04:20:44;;;;;;;14.40;7.45;;;19.80;99.90;;;;;;5074681;28;20433;-71
2023/08/19 04:23:10;;;;;;;12.77;7.43;;;19.80;99.90;;;;;;5079207;28;20036;-71
2023/08/19 04:25:35;;;;;;;12.30;7.32;;;19.80;99.90;;;;;;5081729;28;20647;-71
2023/08/19 04:28:01;;;;;;;14.00;7.65;;;19.80;99.90;;;;;;5078286;28;20116;-72
2023/08/19 04:30:28;;;;;;;10.93;6.80;;;19.80;99.90;;;;;;5068276;28;20041;-72
2023/08/19 04:32:54;;;;;;;14.70;7.75;;;19.80;99.90;;;;;;5079102;28;20086;-72
2023/08/19 04:35:25;;;;;;;13.77;7.80;;;19.80;99.90;;;;;;5076928;28;20040;-71
2023/08/19 04:37:51;;;;;;;14.35;6.43;;;19.80;99.90;;;;;;5078845;28;20498;-72
2023/08/19 04:40:16;;;;;;;13.93;7.25;;;19.80;99.90;;;;;;5110734;27;20071;-71
2023/08/19 04:42:42;;;;;;;15.73;7.22;;;19.80;99.90;;;;;;5078385;28;20821;-72
2023/08/19 04:45:09;;;;;;;11.90;6.10;;;19.80;99.90;;;;;;5076198;28;20899;-72
2023/08/19 04:47:34;;;;;;;14.68;6.50;;;19.80;99.90;;;;;;5073953;28;20032;-72
2023/08/19 04:50:00;;;;;;;12.68;6.82;;;19.80;99.90;;;;;;5082172;28;20038;-72
2023/08/19 04:52:26;;;;;;;12.18;6.43;;;19.80;99.90;;;;;;5077535;28;20036;-72
2023/08/19 04:54:52;;;;;;;10.02;5.68;;;19.80;99.90;;;;;;5075806;28;20032;-72
2023/08/19 04:57:18;;;;;;;13.07;6.80;;;19.90;99.90;;;;;;5072004;28;20086;-72
2023/08/19 04:59:43;;;;;;;13.30;6.43;;;19.80;99.90;;;;;;5074786;28;20032;-72
2023/08/19 05:02:09;;;;;;;11.77;6.32;;;19.90;99.90;;;;;;5080635;28;20043;-72
2023/08/19 05:04:34;;;;;;;11.10;6.35;;;19.90;99.90;;;;;;5074378;28;20503;-72
2023/08/19 05:07:00;;;;;;;9.35;5.93;;;19.90;99.90;;;;;;5080367;28;20030;-72
2023/08/19 05:09:26;;;;;;;12.07;6.25;;;19.90;99.90;;;;;;5076351;28;20028;-72
2023/08/19 05:11:51;;;;;;;14.10;7.47;;;20.00;99.90;;;;;;5078606;28;20051;-72
2023/08/19 05:14:17;;;;;;;14.23;6.47;;;20.00;99.90;;;;;;5078531;28;20599;-71
2023/08/19 05:16:42;;;;;;;10.02;5.78;;;20.00;99.90;;;;;;5077132;28;20032;-72
2023/08/19 05:19:16;;;;;;;10.68;6.43;;;20.00;99.90;;;;;;5077311;28;20032;-72
2023/08/19 05:21:42;;;;;;;10.10;5.55;;;20.00;99.90;;;;;;5071019;28;20048;-72
2023/08/19 05:24:10;;;;;;;10.45;6.03;;;20.10;99.90;;;;;;5080074;28;20037;-72
2023/08/19 05:26:36;;;;;;;13.48;6.10;;;20.10;99.90;;;;;;5075566;28;20048;-71
2023/08/19 05:29:02;;;;;;;10.07;5.80;;;20.10;99.90;;;;;;5106477;28;20428;-72
2023/08/19 05:31:28;;;;;;;11.90;6.63;;;20.10;99.90;;;;;;5076602;28;20042;-71
2023/08/19 05:33:54;;;;;;;15.18;5.97;;;20.10;99.90;;;;;;5086175;28;20047;-72
2023/08/19 05:36:20;;;;;;;9.20;5.25;;;20.10;99.90;;;;;;5079229;28;20024;-72
2023/08/19 05:38:45;;;;;;;10.75;5.60;;;20.10;99.90;;;;;;5084820;28;20028;-72
2023/08/19 05:41:11;;;;;;;10.95;5.43;;;20.10;99.90;;;;;;5071211;28;20531;-72
2023/08/19 05:43:36;;;;;;;11.38;5.20;;;20.10;99.90;;;;;;5083722;28;20048;-72
2023/08/19 05:46:06;;;;;;;10.00;5.65;;;20.20;99.90;;;;;;5072068;28;20460;-72
2023/08/19 05:48:33;;;;;;;11.93;5.60;;;20.20;99.90;;;;;;5067506;28;20040;-72
2023/08/19 05:50:59;;;;;;;8.25;4.57;;;20.20;99.90;;;;;;5073017;28;20398;-71
2023/08/19 05:53:24;;;;;;;8.32;4.75;;;20.10;99.90;;;;;;5071549;28;20048;-72
2023/08/19 05:55:50;;;;;;;11.18;5.25;;;20.20;99.90;;;;;;5076734;28;20761;-72
2023/08/19 05:58:16;;;;;;;9.82;5.43;;;20.20;99.90;;;;;;5054724;28;20114;-71
2023/08/19 06:00:42;;;;;;;10.18;5.15;;;20.20;99.90;;;;;;5082600;28;20493;-72
2023/08/19 06:03:08;;;;;;;11.48;5.07;;;20.20;99.90;;;;;;5079380;28;20496;-71
2023/08/19 06:05:37;;;;;;;8.07;4.45;;;20.30;99.90;;;;;;5079198;28;20040;-72
2023/08/19 06:08:04;;;;;;;8.88;4.65;;;20.30;99.90;;;;;;5081462;28;20066;-71
2023/08/19 06:10:30;;;;;;;7.28;4.50;;;20.30;99.90;;;;;;5078327;28;20036;-72
2023/08/19 06:12:56;;;;;;;9.80;5.13;;;20.30;99.90;;;;;;5078093;28;20039;-71
2023/08/19 06:15:22;;;;;;;11.50;5.05;;;20.30;99.90;;;;;;5056282;28;20529;-71
2023/08/19 06:17:48;;;;;;;9.18;5.03;;;20.40;99.90;;;;;;5081244;28;20428;-71
2023/08/19 06:20:14;;;;;;;7.63;4.18;;;20.30;99.90;;;;;;5112346;27;20044;-71
2023/08/19 06:22:39;;;;;;;8.25;4.70;;;20.40;99.90;;;;;;5079368;28;20517;-72
2023/08/19 06:25:05;;;;;;;9.57;4.47;;;20.40;99.90;;;;;;5079890;28;20040;-71
2023/08/19 06:27:31;;;;;;;11.65;4.53;;;20.50;99.90;;;;;;5073606;28;20063;-71
2023/08/19 06:29:57;;;;;;;9.13;4.40;;;20.50;99.90;;;;;;5079946;28;20036;-71
2023/08/19 06:32:23;;;;;;;6.72;4.10;;;20.50;99.90;;;;;;5081873;28;20070;-72
2023/08/19 06:34:48;;;;;;;8.52;4.35;;;20.50;99.90;;;;;;5075576;28;20097;-72
2023/08/19 06:37:20;;;;;;;7.28;4.40;;;20.60;99.90;;;;;;5072417;28;20082;-72
2023/08/19 06:39:49;;;;;;;8.43;3.95;;;20.60;99.90;;;;;;5074305;28;20533;-72
2023/08/19 06:42:16;;;;;;;8.85;4.32;;;20.60;99.90;;;;;;5073855;28;20051;-73
2023/08/19 06:44:43;;;;;;;7.97;4.05;;;20.60;99.90;;;;;;5075335;28;20427;-75
2023/08/19 06:47:10;;;;;;;9.75;4.07;;;20.60;99.90;;;;;;5074597;28;20607;-74
2023/08/19 06:49:36;;;;;;;7.60;4.38;;;20.60;99.90;;;;;;5078637;28;20419;-73
2023/08/19 06:52:03;;;;;;;7.45;4.43;;;20.60;99.90;;;;;;5073915;28;20073;-73
2023/08/19 06:54:29;;;;;;;7.68;4.10;;;20.60;99.90;;;;;;5072204;28;20747;-72
2023/08/19 06:57:04;;;;;;;6.72;3.88;;;20.60;99.90;;;;;;5083175;28;20040;-72
2023/08/19 06:59:36;;;;;;;6.28;4.03;;;20.70;99.90;;;;;;5080480;28;20241;-72
2023/08/19 07:02:04;;;;;;;6.75;3.72;;;20.70;99.90;;;;;;5076249;28;20055;-72
2023/08/19 07:04:30;;;;;;;7.55;3.75;;;20.70;99.90;;;;;;5082202;28;20478;-73
2023/08/19 07:07:01;;;;;;;7.47;3.70;;;20.70;99.90;;;;;;5078581;28;20036;-72
2023/08/19 07:09:27;;;;;;;8.48;4.20;;;20.70;99.90;;;;;;5079518;28;20063;-73
2023/08/19 07:11:55;;;;;;;5.97;3.58;;;20.70;99.90;;;;;;5070715;28;20029;-72
2023/08/19 07:14:21;;;;;;;6.38;3.63;;;20.80;99.90;;;;;;5081108;28;20045;-72
2023/08/19 07:16:49;;;;;;;6.53;4.00;;;20.80;99.90;;;;;;5071406;28;20040;-72
2023/08/19 07:19:18;;;;;;;8.38;4.63;;;20.80;99.90;;;;;;5078511;28;20047;-72
2023/08/19 07:21:46;;;;;;;9.75;4.03;;;20.80;99.90;;;;;;5074543;28;20044;-72
2023/08/19 07:24:13;;;;;;;6.63;3.78;;;20.80;99.90;;;;;;5082905;28;20040;-72
2023/08/19 07:26:39;;;;;;;8.23;4.05;;;20.80;99.90;;;;;;5075544;28;20051;-73
2023/08/19 07:29:05;;;;;;;8.30;3.83;;;20.80;99.90;;;;;;5072951;28;20070;-76
2023/08/19 07:31:31;;;;;;;9.20;3.60;;;20.80;99.90;;;;;;5087305;28;20051;-73
2023/08/19 07:33:59;;;;;;;9.18;3.92;;;20.90;99.90;;;;;;5079544;28;20096;-73
2023/08/19 07:36:25;;;;;;;8.68;3.63;;;20.90;99.90;;;;;;5068839;28;20070;-73
2023/08/19 07:38:51;;;;;;;5.47;3.30;;;20.90;99.90;;;;;;5109334;27;20520;-73
2023/08/19 07:41:18;;;;;;;8.40;3.28;;;20.90;99.90;;;;;;5090557;28;20040;-73
2023/08/19 07:43:44;;;;;;;8.50;3.67;;;21.00;99.90;;;;;;5086830;28;20118;-73
2023/08/19 07:46:10;;;;;;;5.65;2.92;;;21.00;99.90;;;;;;5069766;28;20087;-73
2023/08/19 07:48:35;;;;;;;5.90;3.20;;;21.00;99.90;;;;;;5070379;28;20052;-73
2023/08/19 07:51:01;;;;;;;6.25;3.10;;;21.00;99.90;;;;;;5068767;28;20044;-73
2023/08/19 07:53:27;;;;;;;8.13;3.67;;;21.00;99.90;;;;;;5070239;28;20040;-73
2023/08/19 07:55:53;;;;;;;5.70;3.50;;;21.10;99.90;;;;;;5051487;28;20051;-73
2023/08/19 07:58:18;;;;;;;5.25;3.00;;;21.20;99.90;;;;;;5074987;28;20119;-73
2023/08/19 08:00:44;;;;;;;6.68;3.10;;;21.20;99.90;;;;;;5090194;28;20134;-73
2023/08/19 08:03:09;;;;;;;5.75;3.00;;;21.30;99.90;;;;;;5090342;28;20044;-73
2023/08/19 08:05:35;;;;;;;5.63;3.33;;;21.30;99.90;;;;;;5089329;28;20044;-73
2023/08/19 08:08:00;;;;;;;5.35;2.83;;;21.30;99.90;;;;;;5067569;28;20036;-73
2023/08/19 08:10:26;;;;;;;5.55;2.72;;;21.30;99.90;;;;;;5066865;28;20036;-73
2023/08/19 08:12:51;;;;;;;6.15;3.42;;;21.40;99.90;;;;;;5072032;28;20059;-73
2023/08/19 08:15:17;;;;;;;5.70;3.38;;;21.40;99.90;;;;;;5088769;28;20040;-73
2023/08/19 08:17:43;;;;;;;5.20;3.30;;;21.50;99.90;;;;;;5088606;28;20441;-73
2023/08/19 08:20:08;;;;;;;6.25;3.10;;;21.50;99.90;;;;;;5068475;28;20042;-73
2023/08/19 08:22:35;;;;;;;6.28;3.13;;;21.50;99.90;;;;;;5122860;27;20044;-73
2023/08/19 08:25:04;;;;;;;6.15;3.10;;;21.50;99.90;;;;;;5088468;28;20097;-74
2023/08/19 08:27:30;;;;;;;5.85;2.60;;;21.60;99.90;;;;;;5082951;28;20052;-73
2023/08/19 08:29:56;;;;;;;4.90;3.03;;;21.60;99.90;;;;;;5077813;28;20052;-73
2023/08/19 08:32:21;;;;;;;6.90;3.28;;;21.70;99.90;;;;;;5082099;28;20032;-73
2023/08/19 08:34:47;;;;;;;5.75;3.10;;;21.70;99.90;;;;;;5069448;28;20391;-73
2023/08/19 08:37:12;;;;;;;5.22;3.35;;;21.80;99.90;;;;;;5073624;28;20068;-73
2023/08/19 08:39:38;;;;;;;11.05;3.38;;;21.90;99.90;;;;;;5080484;28;20040;-74
2023/08/19 08:42:05;;;;;;;6.57;3.58;;;22.00;99.90;;;;;;5052187;28;20462;-73
2023/08/19 08:44:33;;;;;;;5.82;2.85;;;22.00;99.90;;;;;;5106501;27;20115;-73
2023/08/19 08:46:59;;;;;;;5.30;3.15;;;22.10;99.90;;;;;;5083459;28;20036;-73
2023/08/19 08:49:27;;;;;;;5.30;3.28;;;22.20;99.90;;;;;;5068944;28;20415;-74
2023/08/19 08:51:54;;;;;;;5.60;3.00;;;22.30;99.90;;;;;;5102420;27;20101;-75
2023/08/19 08:54:22;;;;;;;5.18;3.38;;;22.30;99.90;;;;;;5073883;28;20044;-73
2023/08/19 08:56:47;;;;;;;6.55;3.28;;;22.40;99.90;;;;;;5073902;28;20349;-73
2023/08/19 08:59:13;;;;;;;4.80;3.08;;;22.40;99.90;;;;;;5103687;27;20061;-73
2023/08/19 09:01:42;;;;;;;5.65;3.00;;;22.50;99.90;;;;;;5066282;28;20035;-73
2023/08/19 09:04:09;;;;;;;5.75;3.00;;;22.60;99.90;;;;;;5078186;28;20090;-73
2023/08/19 09:06:37;;;;;;;6.00;2.63;;;22.60;99.90;;;;;;5086685;28;20044;-73
2023/08/19 09:09:08;;;;;;;5.72;2.70;;;22.70;99.90;;;;;;5074319;28;20059;-73
2023/08/19 09:11:36;;;;;;;5.07;2.97;;;22.70;99.90;;;;;;5069451;28;20529;-73
2023/08/19 09:14:28;;;;;;;7.28;3.05;;;22.70;99.90;;;;;;5073580;28;20059;-73
2023/08/19 09:16:53;;;;;;;6.47;3.10;;;22.80;99.90;;;;;;5072202;28;20036;-73
2023/08/19 09:19:19;;;;;;;6.95;2.75;;;22.80;99.90;;;;;;5076495;28;20707;-73
2023/08/19 09:21:44;;;;;;;5.65;2.97;;;22.80;99.90;;;;;;5071852;28;20048;-73
2023/08/19 09:24:15;;;;;;;7.15;3.60;;;22.90;99.90;;;;;;5074000;28;20035;-72
2023/08/19 09:26:40;;;;;;;5.78;3.25;;;22.90;99.90;;;;;;5074621;28;20048;-73
2023/08/19 09:29:06;;;;;;;9.73;3.28;;;23.00;99.90;;;;;;5079267;28;21092;-73
2023/08/19 09:31:32;;;;;;;8.00;3.45;;;23.00;99.90;;;;;;5082763;28;20036;-73
2023/08/19 09:33:59;;;;;;;8.82;3.63;;;23.00;99.90;;;;;;5057648;28;20139;-73
2023/08/19 09:36:25;;;;;;;7.43;3.60;;;23.00;99.90;;;;;;5076135;28;20543;-73
2023/08/19 09:38:55;;;;;;;6.75;3.58;;;23.10;99.90;;;;;;5078793;28;20040;-73
2023/08/19 09:41:24;;;;;;;7.28;3.45;;;23.20;99.90;;;;;;5114404;27;20044;-73
2023/08/19 09:43:49;;;;;;;6.75;3.25;;;23.30;99.90;;;;;;5078148;28;20518;-73
2023/08/19 09:46:15;;;;;;;7.25;3.03;;;23.30;99.90;;;;;;5076599;28;20283;-73
2023/08/19 09:48:52;;;;;;;4.65;2.78;;;23.30;99.90;;;;;;5111941;27;20456;-73
2023/08/19 09:51:25;;;;;;;7.28;3.05;;;23.30;99.90;;;;;;5072395;28;20055;-73
2023/08/19 09:53:51;;;;;;;5.03;2.72;;;23.30;99.90;;;;;;5081453;28;20086;-73
2023/08/19 09:56:25;;;;;;;6.95;2.75;;;23.20;99.90;;;;;;5073141;28;20044;-73
2023/08/19 09:58:53;;;;;;;4.75;2.53;;;23.30;99.90;;;;;;5077319;28;20044;-73
2023/08/19 10:01:20;;;;;;;6.93;3.00;;;23.30;99.90;;;;;;5073924;28;20040;-73
2023/08/19 10:03:47;;;;;;;6.47;2.80;;;23.40;99.90;;;;;;5077182;28;20042;-73
2023/08/19 10:06:23;;;;;;;5.47;2.80;;;23.40;99.90;;;;;;5079690;28;20044;-73
2023/08/19 10:08:52;;;;;;;7.65;3.00;;;23.40;99.90;;;;;;5074555;28;20054;-73
2023/08/19 10:11:19;;;;;;;7.35;3.30;;;23.40;99.90;;;;;;5071048;28;20122;-73
2023/08/19 10:13:46;;;;;;;7.40;3.47;;;23.50;99.90;;;;;;5074346;28;20433;-72
2023/08/19 10:16:15;;;;;;;7.38;3.00;;;23.40;99.90;;;;;;5057875;28;20036;-74
2023/08/19 10:18:44;;;;;;;5.60;2.92;;;23.40;99.90;;;;;;5072905;28;20037;-73
2023/08/19 10:21:14;;;;;;;5.88;3.08;;;23.40;99.90;;;;;;5056034;28;20413;-73
2023/08/19 10:23:43;;;;;;;5.28;2.80;;;23.40;99.90;;;;;;5117885;27;20405;-73
2023/08/19 10:26:09;;;;;;;5.97;2.97;;;23.40;99.90;;;;;;5076573;28;20329;-73
2023/08/19 10:28:34;;;;;;;6.15;3.05;;;23.40;99.90;;;;;;5078579;28;20276;-73
2023/08/19 10:31:19;;;;;;;5.75;3.15;;;23.40;99.90;;;;;;5081299;28;20119;-73
2023/08/19 10:33:46;;;;;;;6.43;3.03;;;23.40;99.90;;;;;;5076435;28;20051;-73
2023/08/19 10:36:16;;;;;;;5.50;2.78;;;23.30;99.90;;;;;;5079702;28;20028;-73
2023/08/19 10:38:57;;;;;;;5.35;2.95;;;23.30;99.90;;;;;;5084521;28;20115;-74
2023/08/19 10:41:27;;;;;;;5.22;2.90;;;23.30;99.90;;;;;;5081791;28;20068;-74
2023/08/19 10:43:58;;;;;;;6.93;3.10;;;23.30;99.90;;;;;;5077450;28;20631;-73
2023/08/19 10:46:47;;;;;;;7.05;3.22;;;23.20;99.90;;;;;;5107353;27;20047;-73
2023/08/19 10:49:13;;;;;;;4.60;3.10;;;23.20;99.90;;;;;;5073982;28;20033;-73
2023/08/19 10:51:47;;;;;;;5.90;3.30;;;23.20;99.90;;;;;;5080373;28;20067;-73
2023/08/19 10:54:12;;;;;;;7.80;3.60;;;23.20;99.90;;;;;;5082603;28;20040;-73
2023/08/19 10:56:50;;;;;;;5.60;3.35;;;23.30;99.90;;;;;;5088560;28;20137;-73
2023/08/19 10:59:16;;;;;;;7.22;3.28;;;23.30;99.90;;;;;;5080174;28;20048;-73
2023/08/19 11:01:42;;;;;;;8.70;3.60;;;23.20;99.90;;;;;;5078779;28;20405;-73
2023/08/19 11:04:07;;;;;;;5.22;3.20;;;23.20;99.90;;;;;;5076676;28;20040;-73
2023/08/19 11:06:33;;;;;;;7.00;4.20;;;23.20;99.90;;;;;;5076511;28;20153;-73
2023/08/19 11:08:59;;;;;;;5.32;3.20;;;23.30;99.90;;;;;;5085310;28;20115;-73
2023/08/19 11:11:26;;;;;;;5.05;3.15;;;23.20;99.90;;;;;;5055563;28;20826;-74
2023/08/19 11:13:52;;;;;;;7.72;3.83;;;23.20;99.90;;;;;;5078687;28;20890;-73
2023/08/19 11:16:18;;;;;;;7.90;4.00;;;23.30;99.90;;;;;;5073675;28;20045;-72
2023/08/19 11:18:43;;;;;;;8.75;3.88;;;23.30;99.90;;;;;;5077319;28;20039;-72
2023/08/19 11:21:09;;;;;;;6.95;3.88;;;23.30;99.90;;;;;;5080030;28;20524;-72
2023/08/19 11:23:35;;;;;;;7.72;3.95;;;23.40;99.90;;;;;;5062497;28;20044;-73
2023/08/19 11:26:01;;;;;;;7.88;4.22;;;23.40;99.90;;;;;;5066184;28;20128;-73
2023/08/19 11:28:27;;;;;;;9.52;4.40;;;23.50;99.90;;;;;;5074839;28;20059;-74
2023/08/19 11:30:53;;;;;;;7.38;3.90;;;23.60;99.90;;;;;;5055690;28;20511;-73
2023/08/19 11:33:19;;;;;;;7.15;4.80;;;23.60;99.90;;;;;;5075909;28;20311;-73
2023/08/19 11:35:46;;;;;;;8.23;5.22;;;23.70;99.90;;;;;;5074268;28;20068;-73
2023/08/19 11:38:15;;;;;;;6.95;4.50;;;23.80;99.90;;;;;;5072940;28;20031;-73
2023/08/19 11:40:42;;;;;;;7.18;5.00;;;23.80;99.90;;;;;;5065069;28;20560;-73
2023/08/19 11:43:09;;;;;;;9.48;5.43;;;23.90;99.90;;;;;;5065950;28;20051;-73
2023/08/19 11:45:38;;;;;;;8.60;5.25;;;23.90;99.90;;;;;;5059438;28;20150;-73
2023/08/19 11:48:13;;;;;;;8.93;5.30;;;24.00;99.90;;;;;;5105769;27;20119;-73
2023/08/19 11:50:50;;;;;;;9.50;5.25;;;24.00;99.90;;;;;;5092467;28;20110;-74
2023/08/19 11:53:26;;;;;;;12.10;5.60;;;24.00;99.90;;;;;;5072037;28;20079;-73
2023/08/19 11:55:57;;;;;;;12.05;5.90;;;24.00;99.90;;;;;;5073198;28;20040;-73
2023/08/19 11:58:37;;;;;;;11.18;6.22;;;24.10;99.90;;;;;;5081643;28;20032;-73
2023/08/19 12:01:03;;;;;;;11.05;6.40;;;24.10;99.90;;;;;;5063625;28;20080;-73
2023/08/19 12:03:28;;;;;;;10.25;5.97;;;24.20;99.90;;;;;;5074188;28;20040;-73
2023/08/19 12:05:54;;;;;;;10.63;6.07;;;24.30;99.90;;;;;;5113511;27;20285;-73
2023/08/19 12:08:28;;;;;;;13.57;7.30;;;24.40;99.90;;;;;;5067868;28;20072;-73
2023/08/19 12:10:53;;;;;;;12.30;6.90;;;24.50;99.90;;;;;;5119696;27;20040;-72
2023/08/19 12:13:23;;;;;;;13.90;6.82;;;24.60;99.90;;;;;;5084942;28;20084;-73
2023/08/19 12:15:49;;;;;;;13.15;7.93;;;24.70;99.90;;;;;;5067221;28;20524;-73
2023/08/19 12:18:15;;;;;;;12.35;7.63;;;24.80;99.90;;;;;;5075297;28;20052;-74
2023/08/19 12:20:41;;;;;;;16.50;8.40;;;24.80;99.90;;;;;;5103253;27;20552;-73
2023/08/19 12:23:07;;;;;;;14.60;8.10;;;24.90;99.90;;;;;;5070418;28;20105;-73
2023/08/19 12:25:32;;;;;;;14.70;8.57;;;24.80;99.90;;;;;;5049604;28;20064;-73
2023/08/19 12:27:58;;;;;;;16.05;8.85;;;24.80;99.90;;;;;;5066066;28;20434;-73
2023/08/19 12:30:24;;;;;;;15.18;9.70;;;24.90;99.90;;;;;;5069400;28;20044;-74
2023/08/19 12:32:49;;;;;;;15.43;9.27;;;24.90;99.90;;;;;;5051305;28;20468;-73
2023/08/19 12:35:16;;;;;;;15.18;9.60;;;24.70;99.90;;;;;;5073529;28;20051;-73
2023/08/19 12:37:42;;;;;;;19.08;9.65;;;24.80;99.90;;;;;;5119113;27;20040;-74
2023/08/19 12:40:09;;;;;;;18.40;9.70;;;24.70;99.90;;;;;;5086017;28;20039;-73